Carlos Rovirosa Pérez International Airport
MMVA : now visible

Airfield :











YOU CAN JOIN US ON...

 
LOGIN :

Register | Disclaimer

   EN    FR    IT 

 









Legend :    VFR   Marginal VFR   IFR   Intensive IFR   Very Intensive IFR
Visi :
Ceiling :
>= 8 km
>= 3000ft
5 to 8 km
1000 to 3000 ft
1500m to 5 km
500 to 1000 ft
800 to 1500m
200 to 500 ft
< 800m
< 200 ft
Symbols :   Thunderstorms  Fog  Heavy snow  Heavy precipitations  Wind > 20 kt






- Airport Elevation : 46 ft
- IATA code : VSA


MMVA - Carlos Rovirosa Pérez International

CURRENT METAR :
  • 221943Z 06008KT 6SM SCT012 SCT200 29/26 A2988 RMK 8/108 HZY

EXPIRED METARs :
  • 221846Z 05006KT 6SM SCT012 SCT200 29/26 A2990 RMK 8/108 HZY
  • 221745Z 00000KT 6SM SCT012 SCT200 28/26 A2995 RMK SLP139 57014 954 8/108 HZY

TAF TAF MMVA
Valid from the 22 at 18:00 until the 23 at 18:00 UTC


221652Z 2218/2318 05010KT P6SM BKN015 BKN060
FM230100 10010KT P6SM SCT010 SCT080
FM231000 00000KT 3SM BR OVC010
FM231600 28010KT 4SM HZ SCT010 SCT080



MET'MAP, your aeronautical weather chart ! - Copyright ORBIFLY December 2007 - Disclaimer

ORBIFLY MET'MAP TEAM :

Programming & Development : Alexandra Zaïnal
Concept & Development : Baudouin d'Aumeries
Co-Development & Prog : Marc-Olivier Méhu
Technical & hardware support : Manuel Goepfert

Contact : metmap@orbifly.com




SOURCES & CREDITS :

   NOAA       Earth
Advisory